Nearby METAR Reports

 

KSFZ - Pawtucket, Rhode Island, USA
Distance from station: S 7mi, 11km
Updated: Wed, 08-Jul-2020 8:39am EDT
Mist, Overcast
Mist, Overcast
 Wind from varies
Wind: varies 3 mph , 6 km/h
Temperature: 72°F , 22°C
Dew Point: 72°F , 22°C
Humidity: 100%
Barometer: 30.07 inHg , 1018.3 hPa
Summary: Mist
Clouds: Overcast
Visibility: 2 miles , 3 km
Cloud details: Overcast 300 ft
2020/07/08 12:39 KSFZ 081239Z AUTO VRB03KT 2SM BR OVC003 22/22 A3007 RMK AO2 VIS 1 1/4V2 1/2
KPVD - Providence/Green, Rhode Island, USA
Distance from station: SSE 21mi, 34km
Updated: Wed, 08-Jul-2020 8:15am EDT
Patches of fog, Overcast
Patches of fog, Overcast
 Wind from SSW
Wind: SSW 8 mph , 13 km/h
Temperature: 73°F , 23°C
Dew Point: 72°F , 22°C
Humidity: 94%
Barometer: 30.06 inHg , 1017.9 hPa
Summary: Patches of Fog
Clouds: Overcast
Visibility: 10 miles , 16 km
Cloud details: Overcast 500 ft
2020/07/08 12:15 KPVD 081215Z 21007KT 10SM BCFG OVC005 23/22 A3006 RMK AO2 BCFG SW T02280222
 
KORH - Worcester, Massachusetts, USA
Distance from station: NW 25mi, 40km
Updated: Wed, 08-Jul-2020 8:15am EDT
Mist, Overcast
Mist, Overcast
 Wind from SW
Wind: SW 10 mph , 17 km/h
Temperature: 70°F , 21°C
Dew Point: 68°F , 20°C
Humidity: 94%
Barometer: 30.07 inHg , 1018.3 hPa
Summary: Mist
Clouds: Overcast
Visibility: 3 miles , 5 km
Cloud details: Overcast 200 ft
2020/07/08 12:15 KORH 081215Z 23009KT 3SM BR OVC002 21/20 A3007 RMK AO2 T02110200
KTAN - Taunton, Massachusetts, USA
Distance from station: ESE 28mi, 44km
Updated: Wed, 08-Jul-2020 8:45am EDT
Overcast
Overcast
 Wind from SW
Wind: SW 7 mph , 11 km/h
Temperature: 73°F , 23°C
Dew Point: 70°F , 21°C
Humidity: 89%
Barometer: 30.05 inHg , 1017.6 hPa
Clouds: Overcast
Visibility: 10 miles , 16 km
Cloud details: Overcast 600 ft
2020/07/08 12:45 KTAN 081245Z AUTO 22006KT 10SM OVC006 23/21 A3005 RMK AO2 T02330211
 
KOQU - N. Kingston/Quon, Rhode Island, USA
Distance from station: S 29mi, 47km
Updated: Wed, 08-Jul-2020 7:50am EDT
Mist, Overcast
Mist, Overcast
 Wind from SSW
Wind: SSW 9 mph , 15 km/h
Temperature: 70°F , 21°C
Dew Point: 70°F , 21°C
Humidity: 100%
Barometer: 30.05 inHg , 1017.6 hPa
Summary: Mist
Clouds: Overcast
Visibility: 2 miles , 3 km
Cloud details: Overcast 300 ft
2020/07/08 11:50 KOQU 081150Z 21008KT 2SM BR OVC003 21/21 A3005
KBOS - Boston, Massachusetts, USA
Distance from station: NE 35mi, 57km
Updated: Wed, 08-Jul-2020 7:54am EDT
Overcast
Overcast
 Wind from S
Wind: S 9 mph , 15 km/h
Temperature: 72°F , 22°C
Dew Point: 68°F , 20°C
Humidity: 88%
Barometer: 30.04 inHg , 1017.3 hPa
Clouds: Overcast
Visibility: 10 miles , 16 km
Cloud details: Few Clouds 700 ft
Overcast 800 ft
2020/07/08 11:54 KBOS 081154Z 19008KT 10SM FEW007 OVC008 22/20 A3004 RMK AO2 SLP173 T02170200 10217 20194 56005
 
KUUU - Newport, Rhode Island, USA
Distance from station: SSE 36mi, 57km
Updated: Wed, 08-Jul-2020 8:32am EDT
Mist, Overcast
Mist, Overcast
 Wind from varies
Wind: varies 5 mph , 7 km/h
Temperature: 72°F , 22°C
Dew Point: 70°F , 21°C
Humidity: 94%
Barometer: 30.06 inHg , 1017.9 hPa
Summary: Mist
Clouds: Overcast
Visibility: 3 miles , 5 km
Cloud details: Overcast 200 ft
2020/07/08 12:32 KUUU 081232Z AUTO VRB04KT 3SM BR OVC002 22/21 A3006 RMK AO2 T02220211
KPYM - Plymouth, Massachusetts, USA
Distance from station: E 41mi, 66km
Updated: Wed, 08-Jul-2020 7:52am EDT
Overcast
Overcast
 Wind from varies
Wind: varies 6 mph , 9 km/h
Temperature: 70°F , 21°C
Dew Point: 68°F , 20°C
Humidity: 94%
Barometer: 30.06 inHg , 1017.9 hPa
Clouds: Overcast
Visibility: 10 miles , 16 km
Cloud details: Overcast 600 ft
2020/07/08 11:52 KPYM 081152Z AUTO VRB05KT 10SM OVC006 21/20 A3006 RMK AO2 SLP177 60001 70001 T02110200 10211 20194 58004
 
KWST - Westerly, Rhode Island, USA
Distance from station: SSW 48mi, 78km
Updated: Wed, 08-Jul-2020 8:38am EDT
Fog, Overcast
Fog, Overcast
 Wind from S
Wind: S 9 mph , 15 km/h
Temperature: 73°F , 23°C
Dew Point: 70°F , 21°C
Humidity: 89%
Barometer: 30.06 inHg , 1017.9 hPa
Summary: Fog
Clouds: Overcast
Visibility: 1/2 mile , 0.8 km
Cloud details: Overcast 200 ft
2020/07/08 12:38 KWST 081238Z AUTO 19008KT 1/2SM FG VV002 23/21 A3006 RMK AO2 T02280206